Time;durP1;ratioP1;P1;durP2;ratioP2;P2;SDS_P1;SDS_P2;PMS_P1;PMS_P2;Temp;Humidity;BMP_temperature;BMP_pressure;BME280_temperature;BME280_humidity;BME280_pressure;Samples;Min_cycle;Max_cycle;Signal;HPM_P1;HPM_P2
2021/12/31 00:00:07;;;;;;;;;17.33;16.67;;;;;;;;5038084;28;8880;-83
2021/12/31 00:02:34;;;;;;;;;20.00;14.33;;;;;;;;5036517;28;8996;-87
2021/12/31 00:05:04;;;;;;;;;16.25;15.25;;;;;;;;5039901;28;9690;-82
2021/12/31 00:07:31;;;;;;;;;18.25;18.00;;;;;;;;5044693;28;9654;-85
2021/12/31 00:10:01;;;;;;;;;17.00;14.25;;;;;;;;5031656;28;8902;-83
2021/12/31 00:12:28;;;;;;;;;16.00;14.33;;;;;;;;5042314;28;8975;-84
2021/12/31 00:14:56;;;;;;;;;14.75;11.00;;;;;;;;5044682;28;8951;-85
2021/12/31 00:17:23;;;;;;;;;18.33;14.00;;;;;;;;5041280;28;8884;-82
2021/12/31 00:20:00;;;;;;;;;24.33;18.33;;;;;;;;5044005;28;9105;-83
2021/12/31 00:22:53;;;;;;;;;16.00;12.67;;;;;;;;5040714;28;9007;-84
2021/12/31 00:25:22;;;;;;;;;16.00;14.67;;;;;;;;5038064;28;9026;-85
2021/12/31 00:27:50;;;;;;;;;2.00;2.00;;;;;;;;5041471;28;9160;-82
2021/12/31 00:30:18;;;;;;;;;18.67;18.67;;;;;;;;5033020;28;9020;-86
2021/12/31 00:32:45;;;;;;;;;16.00;14.33;;;;;;;;5044492;28;9035;-85
2021/12/31 00:35:13;;;;;;;;;18.00;14.33;;;;;;;;5043346;28;9362;-88
2021/12/31 00:37:41;;;;;;;;;12.67;9.67;;;;;;;;5039041;28;9124;-86
2021/12/31 00:40:11;;;;;;;;;11.67;11.67;;;;;;;;5025568;28;8971;-86
2021/12/31 00:42:41;;;;;;;;;12.00;10.50;;;;;;;;5025853;28;9034;-87
2021/12/31 00:45:10;;;;;;;;;13.75;13.75;;;;;;;;5041905;28;8877;-83
2021/12/31 00:47:38;;;;;;;;;13.00;13.00;;;;;;;;5039848;28;8877;-90
2021/12/31 00:50:06;;;;;;;;;17.00;17.00;;;;;;;;5044908;28;9060;-86
2021/12/31 00:52:34;;;;;;;;;13.33;13.33;;;;;;;;5039696;28;9078;-89
2021/12/31 00:55:01;;;;;;;;;14.00;10.33;;;;;;;;5044867;28;9046;-83
2021/12/31 00:57:29;;;;;;;;;14.67;14.33;;;;;;;;5042557;28;9027;-83
2021/12/31 00:59:58;;;;;;;;;13.00;13.00;;;;;;;;5038719;28;9043;-82
2021/12/31 01:02:28;;;;;;;;;17.33;15.00;;;;;;;;5043432;28;8911;-83
2021/12/31 01:04:55;;;;;;;;;12.00;10.67;;;;;;;;5035035;28;9857;-87
2021/12/31 01:07:22;;;;;;;;;18.00;14.00;;;;;;;;5032955;28;9243;-88
2021/12/31 01:09:50;;;;;;;;;13.00;13.00;;;;;;;;5040175;28;9092;-81
2021/12/31 01:12:18;;;;;;;;;16.00;15.67;;;;;;;;5033899;28;9411;-83
2021/12/31 01:14:54;;;;;;;;;19.33;17.67;;;;;;;;5046629;28;9277;-80
2021/12/31 01:17:40;;;;;;;;;18.33;16.00;;;;;;;;5041215;28;9274;-86
2021/12/31 01:20:09;;;;;;;;;14.33;14.00;;;;;;;;5044992;28;9273;-85
2021/12/31 01:22:37;;;;;;;;;24.00;16.67;;;;;;;;5043042;28;9306;-85
2021/12/31 01:25:05;;;;;;;;;19.33;17.33;;;;;;;;5043979;28;9397;-82
2021/12/31 01:27:34;;;;;;;;;18.00;15.33;;;;;;;;5039572;28;9325;-80
2021/12/31 01:30:02;;;;;;;;;19.33;19.33;;;;;;;;5044086;28;9411;-82
2021/12/31 01:32:31;;;;;;;;;19.67;19.67;;;;;;;;5044074;28;9444;-81
2021/12/31 01:34:58;;;;;;;;;17.00;16.25;;;;;;;;5035612;28;9436;-82
2021/12/31 01:37:26;;;;;;;;;6.75;6.25;;;;;;;;5038759;28;9637;-81
2021/12/31 01:39:54;;;;;;;;;20.00;17.25;;;;;;;;5043669;28;9429;-85
2021/12/31 01:42:28;;;;;;;;;21.00;18.75;;;;;;;;5039136;28;9505;-82
2021/12/31 01:44:58;;;;;;;;;13.00;9.00;;;;;;;;5039403;28;9490;-81
2021/12/31 01:47:34;;;;;;;;;10.33;10.33;;;;;;;;5042400;28;9448;-89
2021/12/31 01:50:07;;;;;;;;;17.67;17.00;;;;;;;;5030973;28;9284;-85
2021/12/31 01:52:35;;;;;;;;;14.00;14.00;;;;;;;;5042357;28;9330;-83
2021/12/31 01:55:03;;;;;;;;;14.00;13.00;;;;;;;;5046713;28;9442;-87
2021/12/31 01:57:32;;;;;;;;;12.33;12.33;;;;;;;;5036741;28;9579;-87
2021/12/31 01:59:59;;;;;;;;;14.67;12.00;;;;;;;;5039082;28;9424;-84
2021/12/31 02:02:26;;;;;;;;;13.00;12.00;;;;;;;;5047034;28;9369;-82
2021/12/31 02:04:55;;;;;;;;;15.00;15.00;;;;;;;;5047175;28;9494;-81
2021/12/31 02:07:24;;;;;;;;;13.33;13.33;;;;;;;;5048140;28;9344;-83
2021/12/31 02:09:54;;;;;;;;;17.67;15.67;;;;;;;;5044193;28;9477;-87
2021/12/31 02:12:22;;;;;;;;;15.67;12.67;;;;;;;;5045126;28;9286;-87
2021/12/31 02:14:51;;;;;;;;;17.67;14.33;;;;;;;;5042675;28;9347;-85
2021/12/31 02:17:20;;;;;;;;;8.33;8.33;;;;;;;;5044304;28;9489;-81
2021/12/31 02:20:04;;;;;;;;;12.00;12.00;;;;;;;;5039979;28;9204;-82
2021/12/31 02:22:33;;;;;;;;;18.67;14.33;;;;;;;;5047109;28;9216;-86
2021/12/31 02:25:02;;;;;;;;;12.00;12.00;;;;;;;;5047526;28;9191;-85
2021/12/31 02:27:29;;;;;;;;;11.00;9.33;;;;;;;;5048771;28;9275;-83
2021/12/31 02:29:56;;;;;;;;;13.33;10.00;;;;;;;;5048743;28;9256;-88
2021/12/31 02:32:24;;;;;;;;;13.33;13.33;;;;;;;;5046499;28;9192;-85
2021/12/31 02:34:51;;;;;;;;;12.00;12.00;;;;;;;;5047742;28;9110;-85
2021/12/31 02:37:20;;;;;;;;;12.33;9.33;;;;;;;;5043550;28;9344;-82
2021/12/31 02:39:48;;;;;;;;;11.33;9.00;;;;;;;;5046233;28;9034;-83
2021/12/31 02:42:15;;;;;;;;;7.33;5.00;;;;;;;;5046203;28;9043;-82
2021/12/31 02:44:43;;;;;;;;;8.00;6.33;;;;;;;;5037229;28;9151;-86
2021/12/31 02:47:11;;;;;;;;;12.00;10.00;;;;;;;;5036774;28;9129;-83
2021/12/31 02:49:41;;;;;;;;;8.33;8.33;;;;;;;;5038647;28;9211;-84
2021/12/31 02:52:11;;;;;;;;;9.00;8.00;;;;;;;;5035972;28;9252;-85
2021/12/31 02:54:44;;;;;;;;;3.33;3.33;;;;;;;;5046683;28;9111;-83
2021/12/31 02:57:11;;;;;;;;;8.67;8.33;;;;;;;;5039346;28;8996;-83
2021/12/31 02:59:38;;;;;;;;;9.67;8.00;;;;;;;;5040254;28;9181;-86
2021/12/31 03:02:07;;;;;;;;;10.00;8.67;;;;;;;;5041033;28;9071;-87
2021/12/31 03:04:38;;;;;;;;;7.67;7.00;;;;;;;;5046442;28;9892;-88
2021/12/31 03:07:06;;;;;;;;;10.33;8.00;;;;;;;;5040620;28;9746;-81
2021/12/31 03:09:36;;;;;;;;;8.33;8.33;;;;;;;;5044680;28;8988;-81
2021/12/31 03:12:06;;;;;;;;;6.00;6.00;;;;;;;;5045548;28;9799;-84
2021/12/31 03:14:35;;;;;;;;;7.00;7.00;;;;;;;;5044655;28;9058;-83
2021/12/31 03:17:03;;;;;;;;;7.67;7.67;;;;;;;;5039895;28;9096;-85
2021/12/31 03:19:30;;;;;;;;;9.00;9.00;;;;;;;;5043111;28;9368;-81
2021/12/31 03:21:57;;;;;;;;;7.33;6.00;;;;;;;;5044480;28;9206;-84
2021/12/31 03:24:25;;;;;;;;;7.33;7.33;;;;;;;;5043564;28;9176;-84
2021/12/31 03:26:53;;;;;;;;;8.00;8.00;;;;;;;;5042412;28;9997;-84
2021/12/31 03:29:22;;;;;;;;;6.00;6.00;;;;;;;;5041149;28;9219;-88
2021/12/31 03:31:49;;;;;;;;;7.67;6.67;;;;;;;;5040326;28;9172;-83
2021/12/31 03:34:16;;;;;;;;;8.00;8.00;;;;;;;;5039458;28;9185;-86
2021/12/31 03:36:44;;;;;;;;;5.33;5.33;;;;;;;;5041334;28;9271;-80
2021/12/31 03:39:12;;;;;;;;;7.00;7.00;;;;;;;;5031557;28;9221;-82
2021/12/31 03:41:40;;;;;;;;;8.00;8.00;;;;;;;;5037909;28;9399;-81
2021/12/31 03:44:08;;;;;;;;;9.00;9.00;;;;;;;;5034730;28;9275;-84
2021/12/31 03:46:37;;;;;;;;;8.67;8.67;;;;;;;;5034102;28;9213;-82
2021/12/31 03:49:04;;;;;;;;;5.33;5.33;;;;;;;;5041739;28;9099;-83
2021/12/31 03:51:31;;;;;;;;;10.00;6.00;;;;;;;;5045988;28;9143;-82
2021/12/31 03:53:59;;;;;;;;;6.33;6.33;;;;;;;;5035989;28;9134;-82
2021/12/31 03:56:30;;;;;;;;;6.00;6.00;;;;;;;;5045099;28;9276;-86
2021/12/31 03:58:59;;;;;;;;;4.67;4.67;;;;;;;;5035561;28;9254;-85
2021/12/31 04:01:29;;;;;;;;;3.00;3.00;;;;;;;;5045119;28;9054;-87
2021/12/31 04:03:58;;;;;;;;;7.00;6.00;;;;;;;;5043312;28;9214;-86
2021/12/31 04:06:26;;;;;;;;;7.00;4.00;;;;;;;;5038235;28;8992;-83
2021/12/31 04:08:53;;;;;;;;;6.00;6.00;;;;;;;;5035243;28;9008;-85
2021/12/31 04:11:21;;;;;;;;;7.00;7.00;;;;;;;;5043186;28;9310;-81
2021/12/31 04:13:48;;;;;;;;;10.33;8.00;;;;;;;;5038746;28;9173;-84
2021/12/31 04:16:16;;;;;;;;;6.00;6.00;;;;;;;;5042422;28;9236;-86
2021/12/31 04:18:43;;;;;;;;;6.67;6.67;;;;;;;;5043729;28;9239;-85
2021/12/31 04:21:15;;;;;;;;;5.33;5.33;;;;;;;;5039846;28;10082;-85
2021/12/31 04:23:50;;;;;;;;;4.00;4.00;;;;;;;;5045228;28;9280;-81
2021/12/31 04:26:18;;;;;;;;;4.00;4.00;;;;;;;;5045208;28;9838;-84
2021/12/31 04:28:47;;;;;;;;;6.67;6.00;;;;;;;;5039257;28;10716;-87
2021/12/31 04:31:14;;;;;;;;;7.00;7.00;;;;;;;;5044281;28;9165;-83
2021/12/31 04:33:41;;;;;;;;;6.67;6.67;;;;;;;;5043842;28;9106;-87
2021/12/31 04:36:09;;;;;;;;;4.00;4.00;;;;;;;;5040141;28;9247;-85
2021/12/31 04:38:37;;;;;;;;;8.00;8.00;;;;;;;;5042533;28;9278;-81
2021/12/31 04:41:05;;;;;;;;;7.00;7.00;;;;;;;;5044214;28;9343;-82
2021/12/31 04:43:32;;;;;;;;;13.00;9.00;;;;;;;;5042898;28;9521;-84
2021/12/31 04:46:00;;;;;;;;;7.00;7.00;;;;;;;;5044090;28;9434;-81
2021/12/31 04:48:27;;;;;;;;;6.00;6.00;;;;;;;;5044215;28;9330;-85
2021/12/31 04:50:54;;;;;;;;;12.00;6.50;;;;;;;;5037541;28;9333;-85
2021/12/31 04:53:21;;;;;;;;;3.75;3.75;;;;;;;;5040186;28;9499;-85
2021/12/31 04:55:51;;;;;;;;;4.00;4.00;;;;;;;;5042311;28;9513;-81
2021/12/31 04:58:18;;;;;;;;;8.25;6.50;;;;;;;;5035678;28;9584;-86
2021/12/31 05:00:45;;;;;;;;;11.00;9.00;;;;;;;;5043551;28;9515;-83
2021/12/31 05:03:15;;;;;;;;;9.25;9.25;;;;;;;;5033409;28;9799;-82
2021/12/31 05:05:42;;;;;;;;;4.25;4.25;;;;;;;;5041694;28;9890;-84
2021/12/31 05:08:10;;;;;;;;;8.25;5.00;;;;;;;;5043847;28;9732;-79
2021/12/31 05:10:37;;;;;;;;;5.50;5.50;;;;;;;;5044814;28;9656;-83
2021/12/31 05:13:10;;;;;;;;;3.50;3.50;;;;;;;;5039918;28;9709;-85
2021/12/31 05:15:44;;;;;;;;;9.75;7.50;;;;;;;;5042159;28;9582;-81
2021/12/31 05:18:12;;;;;;;;;12.25;7.75;;;;;;;;5040610;28;9708;-78
2021/12/31 05:20:39;;;;;;;;;8.00;8.00;;;;;;;;5036180;28;9881;-79
2021/12/31 05:23:06;;;;;;;;;9.50;8.25;;;;;;;;5034029;28;9610;-80
2021/12/31 05:25:34;;;;;;;;;7.00;7.00;;;;;;;;5041684;28;10384;-82
2021/12/31 05:28:01;;;;;;;;;5.50;5.50;;;;;;;;5044426;28;9669;-80
2021/12/31 05:30:30;;;;;;;;;9.25;6.00;;;;;;;;5046104;28;9488;-78
2021/12/31 05:32:58;;;;;;;;;5.50;5.50;;;;;;;;5047942;28;10259;-80
2021/12/31 05:35:25;;;;;;;;;6.33;4.00;;;;;;;;5045687;28;9722;-80
2021/12/31 05:37:53;;;;;;;;;6.33;4.67;;;;;;;;5043735;28;9422;-80
2021/12/31 05:40:20;;;;;;;;;6.67;4.67;;;;;;;;5043548;28;9482;-79
2021/12/31 05:42:47;;;;;;;;;4.00;4.00;;;;;;;;5045559;28;9358;-80
2021/12/31 05:45:15;;;;;;;;;6.00;6.00;;;;;;;;5047370;28;9366;-79
2021/12/31 05:47:44;;;;;;;;;3.00;3.00;;;;;;;;5033665;28;10140;-80
2021/12/31 05:50:19;;;;;;;;;3.67;3.67;;;;;;;;5045603;28;9348;-80
2021/12/31 05:52:46;;;;;;;;;3.00;3.00;;;;;;;;5043555;28;9256;-78
2021/12/31 05:55:14;;;;;;;;;7.33;4.00;;;;;;;;5031824;28;9282;-78
2021/12/31 05:57:41;;;;;;;;;3.00;3.00;;;;;;;;5036125;28;9288;-79
2021/12/31 06:00:09;;;;;;;;;4.00;4.00;;;;;;;;5036701;28;9187;-81
2021/12/31 06:02:36;;;;;;;;;5.33;4.00;;;;;;;;5041179;28;9294;-80
2021/12/31 06:05:06;;;;;;;;;6.00;3.33;;;;;;;;5041683;28;9192;-79
2021/12/31 06:07:33;;;;;;;;;6.00;3.67;;;;;;;;5035306;28;9134;-82
2021/12/31 06:10:00;;;;;;;;;4.00;4.00;;;;;;;;5038979;28;9185;-81
2021/12/31 06:12:28;;;;;;;;;4.00;4.00;;;;;;;;5042825;28;9191;-80
2021/12/31 06:14:58;;;;;;;;;2.00;2.00;;;;;;;;5057930;28;9268;-81
2021/12/31 06:17:27;;;;;;;;;3.00;3.00;;;;;;;;5046814;28;9106;-82
2021/12/31 06:19:55;;;;;;;;;7.00;4.00;;;;;;;;5046778;28;9196;-79
2021/12/31 06:22:24;;;;;;;;;5.33;5.33;;;;;;;;5044622;28;9030;-80
2021/12/31 06:24:51;;;;;;;;;3.00;3.00;;;;;;;;5044697;28;9966;-80
2021/12/31 06:27:19;;;;;;;;;3.00;3.00;;;;;;;;5046472;28;9180;-83
2021/12/31 06:29:47;;;;;;;;;3.00;3.00;;;;;;;;5041381;28;9068;-78
2021/12/31 06:32:14;;;;;;;;;2.67;2.67;;;;;;;;5042040;28;9216;-83
2021/12/31 06:34:41;;;;;;;;;4.00;4.00;;;;;;;;5043321;28;9260;-80
2021/12/31 06:37:08;;;;;;;;;3.33;2.00;;;;;;;;5044091;28;9335;-80
2021/12/31 06:39:37;;;;;;;;;4.00;2.00;;;;;;;;5044645;28;9362;-82
2021/12/31 06:42:07;;;;;;;;;2.67;2.67;;;;;;;;5041588;28;9170;-83
2021/12/31 06:44:35;;;;;;;;;3.33;3.33;;;;;;;;5042161;28;9255;-84
2021/12/31 06:47:03;;;;;;;;;3.00;3.00;;;;;;;;5046650;28;9270;-79
2021/12/31 06:49:30;;;;;;;;;3.33;3.00;;;;;;;;5046032;28;9263;-85
2021/12/31 06:51:58;;;;;;;;;3.00;3.00;;;;;;;;5045736;28;9304;-87
2021/12/31 06:54:25;;;;;;;;;2.00;2.00;;;;;;;;5041271;28;9283;-76
2021/12/31 06:56:54;;;;;;;;;2.67;2.67;;;;;;;;5033543;28;9282;-73
2021/12/31 06:59:21;;;;;;;;;2.00;2.00;;;;;;;;5051972;28;9347;-73
2021/12/31 07:01:48;;;;;;;;;2.00;2.00;;;;;;;;5040931;28;9201;-73
2021/12/31 07:04:16;;;;;;;;;3.00;3.00;;;;;;;;5041735;28;9324;-73
2021/12/31 07:06:43;;;;;;;;;2.00;2.00;;;;;;;;5041006;28;9381;-72
2021/12/31 07:09:10;;;;;;;;;2.00;2.00;;;;;;;;5043782;28;9186;-73
2021/12/31 07:11:37;;;;;;;;;2.00;2.00;;;;;;;;5038969;28;9667;-74
2021/12/31 07:14:06;;;;;;;;;3.00;3.00;;;;;;;;5041897;28;9205;-72
2021/12/31 07:16:34;;;;;;;;;2.33;2.00;;;;;;;;5038724;28;9278;-76
2021/12/31 07:19:01;;;;;;;;;3.00;3.00;;;;;;;;5038442;28;9277;-75
2021/12/31 07:21:28;;;;;;;;;2.00;2.00;;;;;;;;5045708;28;9199;-77
2021/12/31 07:23:56;;;;;;;;;5.33;5.33;;;;;;;;5043773;28;9315;-74
2021/12/31 07:26:23;;;;;;;;;5.33;3.33;;;;;;;;5040781;28;10180;-74
2021/12/31 07:28:50;;;;;;;;;3.00;3.00;;;;;;;;5039945;28;9281;-72
2021/12/31 07:31:19;;;;;;;;;2.33;2.33;;;;;;;;5042824;28;9360;-75
2021/12/31 07:33:46;;;;;;;;;8.00;8.00;;;;;;;;5043125;28;9981;-74
2021/12/31 07:36:14;;;;;;;;;6.00;6.00;;;;;;;;5038239;28;9639;-74
2021/12/31 07:38:47;;;;;;;;;2.33;2.33;;;;;;;;5043025;28;9672;-73
2021/12/31 07:41:15;;;;;;;;;2.67;2.67;;;;;;;;5042162;28;9248;-73
2021/12/31 07:43:42;;;;;;;;;4.67;4.67;;;;;;;;5039526;28;9443;-74
2021/12/31 07:46:09;;;;;;;;;2.25;2.25;;;;;;;;5040376;28;9426;-74
2021/12/31 07:48:38;;;;;;;;;3.00;3.00;;;;;;;;5043697;28;9588;-73
2021/12/31 07:51:06;;;;;;;;;5.50;4.00;;;;;;;;5042048;28;9405;-73
2021/12/31 07:53:33;;;;;;;;;7.00;4.50;;;;;;;;5042187;28;9658;-74
2021/12/31 07:56:00;;;;;;;;;7.50;6.00;;;;;;;;5042315;28;10802;-75
2021/12/31 07:58:28;;;;;;;;;5.50;5.50;;;;;;;;5040531;28;9529;-73
2021/12/31 08:00:56;;;;;;;;;4.00;3.50;;;;;;;;5038556;28;9446;-73
2021/12/31 08:03:23;;;;;;;;;4.50;3.50;;;;;;;;5038644;28;9588;-73
2021/12/31 08:05:52;;;;;;;;;4.00;4.00;;;;;;;;5038599;28;9588;-72
2021/12/31 08:08:20;;;;;;;;;6.00;3.00;;;;;;;;5042333;28;9662;-72
2021/12/31 08:10:47;;;;;;;;;2.00;2.00;;;;;;;;5039797;28;9995;-73
2021/12/31 08:13:15;;;;;;;;;6.75;6.00;;;;;;;;5040583;28;9485;-73
2021/12/31 08:15:42;;;;;;;;;3.00;3.00;;;;;;;;5038729;28;9875;-73
2021/12/31 08:18:10;;;;;;;;;3.75;3.75;;;;;;;;5038115;28;9714;-73
2021/12/31 08:20:37;;;;;;;;;3.00;3.00;;;;;;;;5039369;28;9628;-74
2021/12/31 08:23:12;;;;;;;;;4.00;4.00;;;;;;;;5043337;28;9477;-73
2021/12/31 08:25:40;;;;;;;;;2.25;2.25;;;;;;;;5036897;28;9481;-73
2021/12/31 08:28:08;;;;;;;;;3.00;3.00;;;;;;;;5036070;28;9536;-74
2021/12/31 08:30:36;;;;;;;;;4.00;4.00;;;;;;;;5036859;28;9383;-74
2021/12/31 08:33:04;;;;;;;;;9.75;9.00;;;;;;;;5040554;28;9514;-74
2021/12/31 08:35:32;;;;;;;;;7.33;6.00;;;;;;;;5042357;28;9521;-75
2021/12/31 08:37:59;;;;;;;;;6.67;6.67;;;;;;;;5040332;28;9410;-75
2021/12/31 08:40:28;;;;;;;;;3.67;3.67;;;;;;;;5041947;28;9370;-75
2021/12/31 08:42:56;;;;;;;;;3.00;3.00;;;;;;;;5041315;28;9339;-74
2021/12/31 08:45:29;;;;;;;;;2.33;2.33;;;;;;;;5040396;28;9263;-75
2021/12/31 08:47:57;;;;;;;;;6.00;6.00;;;;;;;;5042819;28;10009;-73
2021/12/31 08:50:25;;;;;;;;;6.33;6.33;;;;;;;;5050048;28;9521;-75
2021/12/31 08:52:52;;;;;;;;;5.33;5.33;;;;;;;;5042960;28;9413;-74
2021/12/31 08:55:20;;;;;;;;;4.00;4.00;;;;;;;;5041756;28;9352;-73
2021/12/31 08:57:49;;;;;;;;;7.33;6.00;;;;;;;;5044658;28;9353;-73
2021/12/31 09:00:17;;;;;;;;;7.33;6.67;;;;;;;;5039659;28;9355;-75
2021/12/31 09:02:45;;;;;;;;;6.00;6.00;;;;;;;;5039702;28;9428;-74
2021/12/31 09:05:14;;;;;;;;;2.67;2.67;;;;;;;;5043561;28;9333;-74
2021/12/31 09:07:42;;;;;;;;;7.00;4.00;;;;;;;;5042392;28;9364;-72
2021/12/31 09:10:09;;;;;;;;;3.00;3.00;;;;;;;;5043003;28;9335;-74
2021/12/31 09:12:38;;;;;;;;;3.00;3.00;;;;;;;;5033295;28;9700;-74
2021/12/31 09:15:08;;;;;;;;;3.00;3.00;;;;;;;;5042686;28;9277;-75
2021/12/31 09:17:35;;;;;;;;;7.67;4.00;;;;;;;;5042770;28;10060;-75
2021/12/31 09:20:03;;;;;;;;;3.00;3.00;;;;;;;;5044602;28;9352;-75
2021/12/31 09:22:33;;;;;;;;;3.33;3.33;;;;;;;;5043760;28;9228;-74
2021/12/31 09:25:01;;;;;;;;;6.33;4.00;;;;;;;;5043240;28;10093;-74
2021/12/31 09:27:30;;;;;;;;;7.33;4.00;;;;;;;;5044272;28;9202;-75
2021/12/31 09:29:58;;;;;;;;;4.00;4.00;;;;;;;;5030276;28;9190;-74
2021/12/31 09:32:31;;;;;;;;;5.33;5.33;;;;;;;;5041713;28;9141;-76
2021/12/31 09:35:00;;;;;;;;;7.33;7.00;;;;;;;;5038709;28;9211;-74
2021/12/31 09:37:27;;;;;;;;;3.00;3.00;;;;;;;;5039287;28;9066;-75
2021/12/31 09:39:55;;;;;;;;;3.67;3.67;;;;;;;;5043065;28;8979;-75
2021/12/31 09:42:24;;;;;;;;;6.00;3.67;;;;;;;;5044081;28;9185;-74
2021/12/31 09:44:53;;;;;;;;;6.00;6.00;;;;;;;;5044241;28;8949;-75
2021/12/31 09:47:21;;;;;;;;;1.00;1.00;;;;;;;;5047127;28;9879;-74
2021/12/31 09:49:51;;;;;;;;;6.00;3.00;;;;;;;;5042927;28;8877;-73
2021/12/31 09:52:21;;;;;;;;;3.00;3.00;;;;;;;;5042725;28;8958;-74
2021/12/31 09:54:54;;;;;;;;;5.33;5.33;;;;;;;;5044185;28;8877;-75
2021/12/31 09:57:22;;;;;;;;;8.33;8.33;;;;;;;;5042437;28;9583;-74
2021/12/31 09:59:50;;;;;;;;;8.00;8.00;;;;;;;;5035596;28;9046;-74
2021/12/31 10:02:31;;;;;;;;;7.67;7.00;;;;;;;;5036779;28;9064;-74
2021/12/31 10:05:01;;;;;;;;;5.33;5.33;;;;;;;;5043052;28;8966;-74
2021/12/31 10:07:30;;;;;;;;;4.75;4.00;;;;;;;;5043586;28;8971;-74
2021/12/31 10:10:14;;;;;;;;;4.00;4.00;;;;;;;;5044891;28;9007;-76
2021/12/31 10:12:49;;;;;;;;;6.00;6.00;;;;;;;;5043487;28;8861;-74
2021/12/31 10:15:18;;;;;;;;;4.50;3.75;;;;;;;;5043626;28;8884;-74
2021/12/31 10:17:46;;;;;;;;;3.75;3.75;;;;;;;;5048419;28;8849;-74
2021/12/31 10:20:15;;;;;;;;;6.75;4.00;;;;;;;;5046682;28;9596;-74
2021/12/31 10:22:42;;;;;;;;;5.50;4.00;;;;;;;;5037777;28;9402;-74
2021/12/31 10:25:20;;;;;;;;;2.75;2.75;;;;;;;;5047415;28;8877;-74
2021/12/31 10:27:49;;;;;;;;;3.00;3.00;;;;;;;;5046279;28;9662;-75
2021/12/31 10:30:23;;;;;;;;;1.50;1.50;;;;;;;;5034473;28;8958;-74
2021/12/31 10:32:51;;;;;;;;;6.75;4.75;;;;;;;;5045406;28;8963;-76
2021/12/31 10:35:21;;;;;;;;;2.25;2.25;;;;;;;;5047479;28;8988;-75
2021/12/31 10:37:50;;;;;;;;;3.00;3.00;;;;;;;;5044906;28;8861;-76
2021/12/31 10:40:29;;;;;;;;;3.00;3.00;;;;;;;;5046125;28;8987;-75
2021/12/31 10:43:12;;;;;;;;;3.00;3.00;;;;;;;;5046649;28;8849;-75
2021/12/31 10:45:40;;;;;;;;;4.50;4.50;;;;;;;;5038589;28;8877;-75
2021/12/31 10:48:09;;;;;;;;;4.50;4.50;;;;;;;;5046429;28;8901;-75
2021/12/31 10:50:38;;;;;;;;;3.50;3.50;;;;;;;;5045750;28;8901;-75
2021/12/31 10:53:11;;;;;;;;;5.25;3.50;;;;;;;;5040702;28;8861;-75
2021/12/31 10:55:41;;;;;;;;;3.25;3.25;;;;;;;;5046736;28;8884;-74
2021/12/31 10:58:11;;;;;;;;;2.50;2.50;;;;;;;;5045525;28;8881;-75
2021/12/31 11:00:42;;;;;;;;;6.00;4.00;;;;;;;;5042768;28;8810;-75
2021/12/31 11:03:09;;;;;;;;;4.00;4.00;;;;;;;;5045768;28;8881;-75
2021/12/31 11:05:38;;;;;;;;;6.25;4.00;;;;;;;;5046503;28;8884;-75
2021/12/31 11:08:08;;;;;;;;;3.75;3.75;;;;;;;;5045051;28;8869;-75
2021/12/31 11:10:37;;;;;;;;;5.00;5.00;;;;;;;;5046196;28;9671;-75
2021/12/31 11:13:11;;;;;;;;;3.50;3.50;;;;;;;;5046100;28;8841;-75
2021/12/31 11:15:39;;;;;;;;;5.00;3.25;;;;;;;;5045221;28;9000;-74
2021/12/31 11:18:08;;;;;;;;;4.25;3.75;;;;;;;;5046165;28;8962;-75
2021/12/31 11:20:37;;;;;;;;;3.00;3.00;;;;;;;;5044045;28;8869;-75
2021/12/31 11:23:05;;;;;;;;;2.50;2.50;;;;;;;;5045150;28;8877;-75
2021/12/31 11:25:33;;;;;;;;;2.00;2.00;;;;;;;;5043482;28;9915;-75
2021/12/31 11:28:01;;;;;;;;;3.25;3.00;;;;;;;;5045936;28;8869;-76
2021/12/31 11:30:31;;;;;;;;;5.25;4.00;;;;;;;;5044483;28;9538;-75
2021/12/31 11:33:07;;;;;;;;;4.00;3.00;;;;;;;;5046074;28;8883;-75
2021/12/31 11:35:38;;;;;;;;;3.00;3.00;;;;;;;;5045754;28;8853;-75
2021/12/31 11:38:07;;;;;;;;;3.25;3.25;;;;;;;;5042937;28;8857;-76
2021/12/31 11:40:36;;;;;;;;;3.00;3.00;;;;;;;;5045668;28;8920;-75
2021/12/31 11:43:23;;;;;;;;;3.25;3.25;;;;;;;;5044107;28;9496;-75
2021/12/31 11:46:43;;;;;;;;;4.25;4.00;;;;;;;;5045063;28;8900;-75
2021/12/31 11:49:20;;;;;;;;;4.50;4.50;;;;;;;;5041502;28;9004;-76
2021/12/31 11:52:06;;;;;;;;;5.00;3.25;;;;;;;;5042126;28;8896;-75
2021/12/31 11:54:36;;;;;;;;;5.00;4.00;;;;;;;;5028067;28;8872;-76
2021/12/31 11:57:18;;;;;;;;;6.50;5.50;;;;;;;;5039535;28;8984;-75
2021/12/31 11:59:52;;;;;;;;;5.00;5.00;;;;;;;;5037239;28;8928;-73
2021/12/31 12:02:33;;;;;;;;;4.00;4.00;;;;;;;;5041869;28;8816;-74
2021/12/31 12:05:14;;;;;;;;;5.60;4.00;;;;;;;;5038585;28;8880;-76
2021/12/31 12:07:47;;;;;;;;;3.20;3.20;;;;;;;;5045968;28;8892;-75
2021/12/31 12:10:37;;;;;;;;;3.00;3.00;;;;;;;;5035206;28;8923;-74
2021/12/31 12:13:26;;;;;;;;;4.00;4.00;;;;;;;;5036661;28;8988;-74
2021/12/31 12:15:53;;;;;;;;;3.00;3.00;;;;;;;;5030310;28;8877;-74
2021/12/31 12:18:52;;;;;;;;;2.80;2.80;;;;;;;;5038390;28;8888;-75
2021/12/31 12:21:37;;;;;;;;;3.00;3.00;;;;;;;;5043524;28;8886;-75
2021/12/31 12:24:07;;;;;;;;;3.00;3.00;;;;;;;;5042880;28;8929;-74
2021/12/31 12:26:35;;;;;;;;;2.00;2.00;;;;;;;;5039997;28;8862;-74
2021/12/31 12:29:02;;;;;;;;;3.00;3.00;;;;;;;;5043033;28;8950;-75
2021/12/31 12:31:34;;;;;;;;;3.00;3.00;;;;;;;;5028428;28;8836;-75
2021/12/31 12:34:03;;;;;;;;;3.00;3.00;;;;;;;;5042473;28;8854;-76
2021/12/31 12:36:31;;;;;;;;;6.00;3.20;;;;;;;;5042049;28;8865;-76
2021/12/31 12:39:09;;;;;;;;;5.00;3.60;;;;;;;;5042348;28;8885;-74
2021/12/31 12:41:43;;;;;;;;;2.00;2.00;;;;;;;;5041290;28;8890;-75
2021/12/31 12:44:11;;;;;;;;;2.00;2.00;;;;;;;;5040339;28;9655;-75
2021/12/31 12:46:54;;;;;;;;;2.00;2.00;;;;;;;;5040729;28;8853;-78
2021/12/31 12:49:24;;;;;;;;;2.40;2.40;;;;;;;;5040862;28;8950;-77
2021/12/31 12:51:51;;;;;;;;;4.40;3.00;;;;;;;;5040805;28;9673;-75
2021/12/31 12:54:24;;;;;;;;;3.00;3.00;;;;;;;;5040095;28;8904;-74
2021/12/31 12:56:53;;;;;;;;;2.00;2.00;;;;;;;;5043599;28;8911;-76
2021/12/31 12:59:22;;;;;;;;;2.00;2.00;;;;;;;;5042667;28;8879;-76
2021/12/31 13:01:52;;;;;;;;;4.00;2.20;;;;;;;;5039769;28;8864;-78
2021/12/31 13:04:24;;;;;;;;;2.80;2.80;;;;;;;;5043826;28;8923;-79
2021/12/31 13:06:57;;;;;;;;;2.00;2.00;;;;;;;;5043105;28;8857;-79
2021/12/31 13:09:30;;;;;;;;;2.20;2.20;;;;;;;;5043357;28;8947;-79
2021/12/31 13:12:00;;;;;;;;;3.60;2.40;;;;;;;;5040432;28;8853;-80
2021/12/31 13:14:33;;;;;;;;;3.00;3.00;;;;;;;;5039571;28;10009;-80
2021/12/31 13:17:02;;;;;;;;;3.60;2.60;;;;;;;;5043338;28;8968;-80
2021/12/31 13:19:31;;;;;;;;;3.00;3.00;;;;;;;;5042341;28;8935;-79
2021/12/31 13:21:59;;;;;;;;;4.80;3.60;;;;;;;;5042235;28;8890;-80
2021/12/31 13:24:30;;;;;;;;;3.00;3.00;;;;;;;;5037760;28;8878;-80
2021/12/31 13:27:03;;;;;;;;;3.00;3.00;;;;;;;;5043525;28;8890;-79
2021/12/31 13:29:32;;;;;;;;;3.20;3.00;;;;;;;;5039292;28;8872;-81
2021/12/31 13:32:08;;;;;;;;;2.00;2.00;;;;;;;;5041854;28;8813;-78
2021/12/31 13:34:42;;;;;;;;;2.40;2.40;;;;;;;;5043456;28;8849;-81
2021/12/31 13:37:16;;;;;;;;;2.60;2.60;;;;;;;;5037920;28;8842;-78
2021/12/31 13:39:45;;;;;;;;;3.60;3.00;;;;;;;;5039514;28;8865;-79
2021/12/31 13:42:16;;;;;;;;;4.00;4.00;;;;;;;;5041037;28;8895;-78
2021/12/31 13:44:50;;;;;;;;;4.60;2.60;;;;;;;;5040452;28;9008;-79
2021/12/31 13:47:21;;;;;;;;;1.60;1.60;;;;;;;;5041927;28;8865;-78
2021/12/31 13:49:52;;;;;;;;;2.25;2.25;;;;;;;;5041115;28;8951;-77
2021/12/31 13:52:22;;;;;;;;;3.20;2.80;;;;;;;;5044998;28;8900;-81
2021/12/31 13:54:53;;;;;;;;;3.00;3.00;;;;;;;;5046205;28;8992;-73
2021/12/31 13:57:24;;;;;;;;;3.50;3.00;;;;;;;;5044518;28;8865;-74
2021/12/31 13:59:52;;;;;;;;;1.50;1.50;;;;;;;;5040771;28;8880;-74
2021/12/31 14:02:25;;;;;;;;;2.00;2.00;;;;;;;;5045820;28;8834;-73
2021/12/31 14:05:20;;;;;;;;;3.00;3.00;;;;;;;;5044551;28;8868;-75
2021/12/31 14:07:57;;;;;;;;;3.75;3.75;;;;;;;;4995607;28;8881;-75
2021/12/31 14:10:27;;;;;;;;;3.50;3.00;;;;;;;;5046337;28;8873;-75
2021/12/31 14:13:00;;;;;;;;;5.50;3.50;;;;;;;;5045869;28;9020;-79
2021/12/31 14:15:30;;;;;;;;;4.00;2.25;;;;;;;;5043731;28;8858;-80
2021/12/31 14:17:58;;;;;;;;;3.00;3.00;;;;;;;;5044885;28;8928;-77
2021/12/31 14:20:29;;;;;;;;;3.80;2.80;;;;;;;;5045694;28;8885;-76
2021/12/31 14:22:57;;;;;;;;;5.60;2.60;;;;;;;;5034960;28;8883;-74
2021/12/31 14:25:28;;;;;;;;;4.00;2.80;;;;;;;;5038822;28;8891;-74
2021/12/31 14:27:56;;;;;;;;;3.00;3.00;;;;;;;;5045651;28;8861;-75
2021/12/31 14:30:29;;;;;;;;;4.80;4.00;;;;;;;;5042177;28;8753;-74
2021/12/31 14:32:58;;;;;;;;;3.80;3.80;;;;;;;;5044256;28;8892;-73
2021/12/31 14:35:30;;;;;;;;;2.60;2.00;;;;;;;;5041266;28;8877;-77
2021/12/31 14:37:58;;;;;;;;;3.00;3.00;;;;;;;;5038510;28;8884;-74
2021/12/31 14:40:27;;;;;;;;;5.00;3.20;;;;;;;;5041529;28;8858;-75
2021/12/31 14:42:55;;;;;;;;;3.00;3.00;;;;;;;;5042357;28;8895;-77
2021/12/31 14:45:23;;;;;;;;;4.60;2.00;;;;;;;;5043138;28;8865;-77
2021/12/31 14:47:51;;;;;;;;;3.00;3.00;;;;;;;;5042094;28;8899;-79
2021/12/31 14:50:20;;;;;;;;;3.00;3.00;;;;;;;;5045889;28;8962;-79
2021/12/31 14:52:53;;;;;;;;;2.75;2.75;;;;;;;;5040621;28;9008;-76
2021/12/31 14:55:21;;;;;;;;;4.25;4.00;;;;;;;;5044956;28;8865;-79
2021/12/31 14:57:50;;;;;;;;;2.75;2.75;;;;;;;;5044765;28;8861;-78
2021/12/31 15:00:20;;;;;;;;;7.25;5.50;;;;;;;;5038646;28;9035;-77
2021/12/31 15:02:47;;;;;;;;;3.75;3.75;;;;;;;;5041713;28;8865;-76
2021/12/31 15:05:14;;;;;;;;;4.75;4.75;;;;;;;;5042944;28;8977;-74